Dauntless Aviation
Greetings, Guest! To participate, [sign up for a free account] or [log in]
Airports North America United States Colorado
98CO

NCMC HELIPORT

GREELEY, CO, USA

Airport Info

Location

Latitude / Longitude: 40°24'53"N / 104°42'28"W
  40°24.9'N / 104°42.4667'W
  40.4150 / -104.7078
Elevation: 4882 ft. (estimated)
Variation: 12E (1985)
From city: 00 miles N of GREELEY, CO

Operations

Facility use: Private
Sectional chart: DENVER
Control tower: no
Boundary ARTCC: DENVER
FSS: DENVER [1-800-WX-BRIEF]
Segmented circle: no

Communications

Nearby radio navigation aids

VOR radial/distance VOR name Freq Var
GLL 233oT/8.9 GILL VORTAC 114.20 13E
DVV 353oT/31.5 MILE HIGH VORTAC 114.70 11E
BJC 33oT/36.1 JEFFCO VOR/DME 115.40 11E
DEN 357oT/36.2 DENVER VOR/DME 117.90 11E
 
NDB name Hdg/Dist Freq Var ID

Services

Runway Information

Helipad H1

Dimensions: 40 x 40 ft.
Surface: PORTLAND CEMENT CONCRETE,NO SPECIAL SURFACE TREATMENT
 

Additional Remarks

Instrument Procedures

No published instrument procedures available
Topographic chart at:
Satellite photo at:
Airport distance calculator
From:
Weather Reports

METAR

KGXY
4.2nm NE
KGXY 171235Z AUTO 09005KT 10SM CLR M01/M04 A3009 RMK AO1
KFNL
14.3nm W
KFNL 171235Z AUTO 01006KT 10SM CLR M02/M04 A3009 RMK AO1
KLMO
25.8nm SW
KLMO 171235Z AUTO 00000KT 10SM CLR 01/00 A3009 RMK AO2 T00131004
KEIK
28.6nm S
KEIK 171236Z AUTO 26003KT 10SM CLR M01/M02 A3007 RMK AO2 T10131021
KBDU
33.3nm SW
KBDU 171236Z AUTO 00000KT 10SM CLR 01/00 A3007 RMK AO2
KDEN
35.0nm SE
KDEN 171253Z 22005KT 10SM FEW110 FEW220 01/M02 A3007 RMK AO2 SLP172 T00111017

TAF

KDEN
35.0nm SE
KDEN 171137Z 1712/1818 18011KT P6SM VCFG FEW002 SCT200 FM171600 VRB05KT P6SM FEW100 SCT220 FM172000 05007KT P6SM FEW140 SCT220 FM180300 20010KT P6SM FEW220
KBJC
35.3nm S
KBJC 171137Z 1712/1812 26006KT P6SM VCFG FEW002 SCT220 FM171400 VRB05KT P6SM FEW100 SCT220 FM172100 03007KT P6SM FEW140 SCT220 FM180100 26010KT P6SM FEW140 SCT220
Safelog

 

Dauntless Aviation

© 2007-2014 Dauntless Aviation, all rights reserved
Information provided via PilotNav comes from a variety of official and unofficial data sources. As errors are possible, do not use PilotNav for primary flight planning purposes. Verify any information that you receive via PilotNav with current and canonical charts and other official documents. The material in this database is subject to database copyrights held by Dauntless Aviation and may not be copied without the express permission of Dauntless Aviation - licenses for use of part of all of this data are available for purchase; enquire via the Dauntless Aviation helpdesk. A number of mechanisms and markers exist in the database to protect against and identify infringement / copyright. Automated queries against this website are stictly prohibited, and all activity is logged and analyzed.